Time;durP1;ratioP1;P1;durP2;ratioP2;P2;SDS_P1;SDS_P2;PMS_P1;PMS_P2;Temp;Humidity;BMP_temperature;BMP_pressure;BME280_temperature;BME280_humidity;BME280_pressure;Samples;Min_cycle;Max_cycle;Signal;HPM_P1;HPM_P2
2023/12/05 00:01:13;;;;;;;24.27;18.05;;;;;;;-142.57;100.00;55466.66;4972641;28;20102;-77
2023/12/05 00:03:38;;;;;;;25.38;18.67;;;;;;;-142.57;100.00;55446.44;4960946;28;20118;-82
2023/12/05 00:06:09;;;;;;;23.25;17.38;;;;;;;-142.57;100.00;55450.50;4974370;28;20054;-78
2023/12/05 00:08:34;;;;;;;23.10;17.27;;;;;;;-142.57;100.00;55397.97;4973699;28;20031;-80
2023/12/05 00:11:06;;;;;;;24.27;17.27;;;;;;;-142.57;100.00;55464.63;4962525;28;20036;-82
2023/12/05 00:13:32;;;;;;;21.83;16.60;;;;;;;-142.57;100.00;55442.41;4970435;28;20043;-80
2023/12/05 00:15:57;;;;;;;21.42;16.73;;;;;;;-142.57;100.00;55412.09;4969753;28;20031;-82
2023/12/05 00:18:24;;;;;;;21.27;16.25;;;;;;;-142.57;100.00;55424.22;4974367;28;20041;-83
2023/12/05 00:20:50;;;;;;;21.23;16.38;;;;;;;-142.57;100.00;55430.28;4962422;28;20390;-83
2023/12/05 00:23:16;;;;;;;21.10;16.85;;;;;;;-142.57;100.00;55462.63;4954789;28;20039;-78
2023/12/05 00:25:41;;;;;;;20.67;15.45;;;;;;;-142.57;100.00;55462.63;4957354;28;20034;-79
2023/12/05 00:28:07;;;;;;;19.73;15.13;;;;;;;-142.57;100.00;55418.16;4938838;28;20562;-77
2023/12/05 00:30:32;;;;;;;19.95;15.48;;;;;;;-142.57;100.00;55446.44;4963552;28;20037;-79
2023/12/05 00:32:58;;;;;;;21.40;15.55;;;;;;;-142.57;100.00;55450.50;4968175;28;20446;-80
2023/12/05 00:35:24;;;;;;;20.60;15.35;;;;;;;-142.57;100.00;55432.31;4963189;28;20051;-79
2023/12/05 00:37:50;;;;;;;18.67;15.02;;;;;;;-142.57;100.00;55418.16;4968494;28;20046;-78
2023/12/05 00:40:15;;;;;;;19.10;14.82;;;;;;;-142.57;100.00;55448.47;4960745;28;20043;-78
2023/12/05 00:42:41;;;;;;;20.55;15.57;;;;;;;-142.57;100.00;55444.44;4966081;28;20544;-81
2023/12/05 00:45:07;;;;;;;19.38;15.38;;;;;;;-142.57;100.00;55426.25;4961049;28;20164;-78
2023/12/05 00:47:33;;;;;;;18.35;14.65;;;;;;;-142.57;100.00;55404.03;4964059;28;20178;-78
2023/12/05 00:49:58;;;;;;;20.45;15.70;;;;;;;-142.57;100.00;55420.19;4966115;28;20044;-80
2023/12/05 00:52:24;;;;;;;18.33;14.45;;;;;;;-142.57;100.00;55450.50;4952063;28;20509;-78
2023/12/05 00:54:49;;;;;;;19.35;14.50;;;;;;;-142.57;100.00;55466.66;4971177;28;20030;-80
2023/12/05 00:57:15;;;;;;;20.15;15.10;;;;;;;-142.57;100.00;55426.25;4972159;28;20023;-79
2023/12/05 00:59:40;;;;;;;20.23;15.18;;;;;;;-142.57;100.00;55462.63;4974742;28;20035;-82
2023/12/05 01:02:07;;;;;;;20.50;15.25;;;;;;;-142.57;100.00;55410.09;4968702;28;20034;-80
2023/12/05 01:04:32;;;;;;;20.45;15.40;;;;;;;-142.57;100.00;55414.13;4950468;28;20049;-77
2023/12/05 01:06:58;;;;;;;19.95;14.77;;;;;;;-142.57;100.00;55406.03;4962512;28;20031;-78
2023/12/05 01:09:24;;;;;;;19.33;14.85;;;;;;;-142.57;100.00;55452.50;4962988;28;20395;-78
2023/12/05 01:11:49;;;;;;;22.25;16.50;;;;;;;-142.57;100.00;55424.22;4980325;28;20043;-82
2023/12/05 01:14:15;;;;;;;20.05;15.27;;;;;;;-142.57;100.00;55440.38;4972750;28;20045;-78
2023/12/05 01:16:43;;;;;;;22.95;15.77;;;;;;;-142.57;100.00;55450.50;4960021;28;20047;-78
2023/12/05 01:19:09;;;;;;;20.67;16.15;;;;;;;-142.57;100.00;55456.56;4966984;28;20042;-80
2023/12/05 01:21:35;;;;;;;19.70;15.23;;;;;;;-142.57;100.00;55474.72;4963333;28;20151;-79
2023/12/05 01:24:01;;;;;;;22.83;16.73;;;;;;;-142.57;100.00;55466.66;4962821;28;20035;-79
2023/12/05 01:26:26;;;;;;;21.85;15.63;;;;;;;-142.57;100.00;55454.53;4966116;28;20093;-81
2023/12/05 01:28:52;;;;;;;21.98;15.88;;;;;;;-142.57;100.00;55462.63;4973394;28;20482;-78
2023/12/05 01:31:17;;;;;;;19.90;15.07;;;;;;;-142.57;100.00;55468.69;4973480;28;20030;-78
2023/12/05 01:33:43;;;;;;;19.98;15.05;;;;;;;-142.57;100.00;55454.53;4954509;28;20149;-82
2023/12/05 01:36:11;;;;;;;19.35;15.02;;;;;;;-142.57;100.00;55478.78;4969320;28;20489;-83
2023/12/05 01:38:37;;;;;;;19.45;14.80;;;;;;;-142.57;100.00;55452.50;4965385;28;20615;-81
2023/12/05 01:41:03;;;;;;;21.20;14.63;;;;;;;-142.57;100.00;55486.84;4961111;28;20056;-82
2023/12/05 01:43:28;;;;;;;19.73;14.77;;;;;;;-142.57;100.00;55468.69;4953499;28;20089;-83
2023/12/05 01:45:55;;;;;;;18.67;14.25;;;;;;;-142.57;100.00;55452.50;4968403;28;20542;-79
2023/12/05 01:48:23;;;;;;;20.45;15.20;;;;;;;-142.57;100.00;55432.31;4962529;28;20051;-79
2023/12/05 01:50:51;;;;;;;20.88;15.68;;;;;;;-142.57;100.00;55406.03;4954972;28;20070;-79
2023/12/05 01:53:17;;;;;;;20.00;15.48;;;;;;;-142.57;100.00;55426.25;4972526;28;20062;-79
2023/12/05 01:55:43;;;;;;;20.08;15.45;;;;;;;-142.57;100.00;55408.06;4971174;28;20026;-79
2023/12/05 01:58:11;;;;;;;20.90;15.52;;;;;;;-142.57;100.00;55458.56;4953904;28;20050;-78
2023/12/05 02:00:40;;;;;;;20.38;15.13;;;;;;;-142.57;100.00;55446.44;4963114;28;20039;-79
2023/12/05 02:03:07;;;;;;;20.67;15.35;;;;;;;-142.57;100.00;55454.53;4965090;28;20462;-80
2023/12/05 02:05:32;;;;;;;19.17;15.35;;;;;;;-142.57;100.00;55488.88;4968167;28;20050;-77
2023/12/05 02:07:58;;;;;;;18.73;14.13;;;;;;;-142.57;100.00;55466.66;4965806;28;20027;-79
2023/12/05 02:10:24;;;;;;;18.83;14.73;;;;;;;-142.57;100.00;55446.44;4966104;28;20493;-78
2023/12/05 02:12:50;;;;;;;20.48;14.85;;;;;;;-142.57;100.00;55450.50;4956190;28;20130;-79
2023/12/05 02:15:16;;;;;;;18.08;14.02;;;;;;;-142.57;100.00;55424.22;4966565;28;20171;-83
2023/12/05 02:18:14;;;;;;;19.38;14.90;;;;;;;-142.57;100.00;55420.19;4954490;28;20445;-81
2023/12/05 02:20:52;;;;;;;20.52;14.73;;;;;;;-142.57;100.00;55450.50;4960681;28;20071;-79
2023/12/05 02:23:41;;;;;;;19.55;14.05;;;;;;;-142.57;100.00;55507.06;4958352;28;20067;-78
2023/12/05 02:26:22;;;;;;;18.33;14.18;;;;;;;-142.57;100.00;55533.31;4984113;28;20066;-78
2023/12/05 02:28:48;;;;;;;17.73;14.35;;;;;;;-142.57;100.00;55448.47;4968497;28;20602;-82
2023/12/05 02:31:13;;;;;;;19.17;14.50;;;;;;;-142.57;100.00;55446.44;4976729;28;20026;-78
2023/12/05 02:33:39;;;;;;;19.55;14.95;;;;;;;-142.57;100.00;55462.63;4987005;28;20046;-78
2023/12/05 02:36:27;;;;;;;19.15;14.68;;;;;;;-142.57;100.00;55446.44;4977070;28;20156;-81
2023/12/05 02:39:12;;;;;;;18.38;14.57;;;;;;;-142.57;100.00;55462.63;4959412;28;20047;-83
2023/12/05 02:41:42;;;;;;;18.33;13.23;;;;;;;-142.57;100.00;55486.84;4969053;28;20035;-80
2023/12/05 02:44:12;;;;;;;18.40;14.77;;;;;;;-142.57;100.00;55434.31;4976048;28;20422;-79
2023/12/05 02:46:40;;;;;;;16.92;13.60;;;;;;;-142.57;100.00;55438.38;4971719;28;20148;-80
2023/12/05 02:49:07;;;;;;;17.92;13.93;;;;;;;-142.57;100.00;55454.53;4968015;28;20035;-78
2023/12/05 02:51:33;;;;;;;20.90;15.05;;;;;;;-142.57;100.00;55440.38;4975894;28;20389;-78
2023/12/05 02:54:05;;;;;;;18.85;14.40;;;;;;;-142.57;100.00;55454.53;4956581;28;20019;-82
2023/12/05 02:56:31;;;;;;;19.52;14.38;;;;;;;-142.57;100.00;55462.63;4960964;28;20043;-84
2023/12/05 02:58:57;;;;;;;18.35;15.05;;;;;;;-142.57;100.00;55486.84;4972064;28;20417;-80
2023/12/05 03:01:22;;;;;;;19.38;14.80;;;;;;;-142.57;100.00;55454.53;4954540;28;20031;-79
2023/12/05 03:03:48;;;;;;;19.50;14.73;;;;;;;-142.57;100.00;55501.00;4967289;28;20038;-84
2023/12/05 03:06:13;;;;;;;18.45;14.73;;;;;;;-142.57;100.00;55458.56;4967323;28;20043;-81
2023/12/05 03:08:39;;;;;;;17.45;14.43;;;;;;;-142.57;100.00;55498.97;4958545;28;20109;-79
2023/12/05 03:11:05;;;;;;;18.75;14.48;;;;;;;-142.57;100.00;55434.31;4960777;28;20046;-80
2023/12/05 03:13:30;;;;;;;18.50;13.98;;;;;;;-142.57;100.00;55450.50;4958769;28;20398;-80
2023/12/05 03:15:56;;;;;;;19.48;15.15;;;;;;;-142.57;100.00;55456.56;4951625;28;20046;-79
2023/12/05 03:18:21;;;;;;;20.80;15.02;;;;;;;-142.57;100.00;55428.25;4960187;28;20038;-82
2023/12/05 03:20:47;;;;;;;19.77;14.82;;;;;;;-142.57;100.00;55507.06;4961287;28;20031;-80
2023/12/05 03:23:17;;;;;;;18.58;14.38;;;;;;;-142.57;100.00;55474.72;4960651;28;20105;-83
2023/12/05 03:25:42;;;;;;;17.83;14.15;;;;;;;-142.57;100.00;55450.50;4970678;28;20457;-80
2023/12/05 03:28:08;;;;;;;18.58;13.50;;;;;;;-142.57;100.00;55436.34;4961321;28;20027;-78
2023/12/05 03:30:33;;;;;;;18.15;14.68;;;;;;;-142.57;100.00;55454.53;4969973;28;20106;-79
2023/12/05 03:32:59;;;;;;;20.23;15.10;;;;;;;-142.57;100.00;55468.69;4968166;28;20474;-81
2023/12/05 03:35:24;;;;;;;19.17;14.93;;;;;;;-142.57;100.00;55446.44;4964326;28;20031;-79
2023/12/05 03:37:50;;;;;;;21.35;15.73;;;;;;;-142.57;100.00;55474.72;4969360;28;20042;-77
2023/12/05 03:40:15;;;;;;;20.30;15.55;;;;;;;-142.57;100.00;55462.63;4957341;28;20024;-79
2023/12/05 03:42:41;;;;;;;20.15;14.98;;;;;;;-142.57;100.00;55466.66;4955187;28;20118;-78
2023/12/05 03:45:06;;;;;;;19.33;15.30;;;;;;;-142.57;100.00;55462.63;4966971;28;20383;-79
2023/12/05 03:47:35;;;;;;;20.60;15.75;;;;;;;-142.57;100.00;55450.50;4968308;28;20042;-82
2023/12/05 03:50:00;;;;;;;20.08;15.40;;;;;;;-142.57;100.00;55462.63;4973554;28;20110;-77
2023/12/05 03:52:26;;;;;;;18.67;15.00;;;;;;;-142.57;100.00;55472.72;4964320;28;20082;-79
2023/12/05 03:54:52;;;;;;;20.67;15.82;;;;;;;-142.57;100.00;55444.44;4971014;28;20035;-79
2023/12/05 03:57:18;;;;;;;19.50;15.25;;;;;;;-142.57;100.00;55478.78;4974785;28;20043;-79
2023/12/05 03:59:44;;;;;;;21.15;15.57;;;;;;;-142.57;100.00;55511.09;4971084;28;20118;-78
2023/12/05 04:02:10;;;;;;;19.10;14.77;;;;;;;-142.57;100.00;55505.03;4964489;28;20518;-78
2023/12/05 04:04:36;;;;;;;19.08;13.70;;;;;;;-142.57;100.00;55466.66;4963021;28;20185;-77
2023/12/05 04:07:01;;;;;;;20.08;15.23;;;;;;;-142.57;100.00;55470.69;4956595;28;20061;-80
2023/12/05 04:09:27;;;;;;;19.52;14.48;;;;;;;-142.57;100.00;55488.88;4966053;28;20042;-82
2023/12/05 04:11:52;;;;;;;20.38;15.35;;;;;;;-142.57;100.00;55527.28;4974363;28;20114;-80
2023/12/05 04:14:18;;;;;;;20.67;15.73;;;;;;;-142.57;100.00;55498.97;4944041;28;20034;-82
2023/12/05 04:16:44;;;;;;;21.20;15.02;;;;;;;-142.57;100.00;55490.91;4959651;28;20512;-85
2023/12/05 04:19:09;;;;;;;20.80;15.30;;;;;;;-142.57;100.00;55476.75;4962120;28;20122;-78
2023/12/05 04:21:35;;;;;;;21.67;16.30;;;;;;;-142.57;100.00;55460.59;4957226;28;20090;-79
2023/12/05 04:24:00;;;;;;;19.92;15.20;;;;;;;-142.57;100.00;55464.63;4962685;28;20117;-78
2023/12/05 04:26:26;;;;;;;23.13;16.45;;;;;;;-142.57;100.00;55426.25;4962859;28;20470;-78
2023/12/05 04:28:51;;;;;;;21.00;15.18;;;;;;;-142.57;100.00;55494.94;4968089;28;20039;-80
2023/12/05 04:31:16;;;;;;;23.08;16.55;;;;;;;-142.57;100.00;55472.72;4963163;28;20094;-83
2023/12/05 04:33:43;;;;;;;21.95;16.45;;;;;;;-142.57;100.00;55482.81;4958121;28;20504;-80
2023/12/05 04:36:09;;;;;;;23.25;16.70;;;;;;;-142.57;100.00;55470.69;4965755;28;20560;-77
2023/12/05 04:38:38;;;;;;;23.10;16.27;;;;;;;-142.57;100.00;55472.72;4954360;28;20051;-78
2023/12/05 04:41:04;;;;;;;23.95;17.08;;;;;;;-142.57;100.00;55476.75;4977308;28;20157;-79
2023/12/05 04:43:30;;;;;;;23.73;16.50;;;;;;;-142.57;100.00;55474.72;4966893;28;20533;-81
2023/12/05 04:45:56;;;;;;;23.67;16.95;;;;;;;-142.57;100.00;55478.78;4970601;28;20050;-83
2023/12/05 04:48:22;;;;;;;22.30;16.42;;;;;;;-142.57;100.00;55476.75;4974203;28;20082;-81
2023/12/05 04:50:48;;;;;;;25.00;17.40;;;;;;;-142.57;100.00;55450.50;4973325;28;20065;-78
2023/12/05 04:53:13;;;;;;;23.40;17.23;;;;;;;-142.57;100.00;55484.84;4954925;28;20109;-82
2023/12/05 04:55:39;;;;;;;23.48;17.05;;;;;;;-142.57;100.00;55416.16;4966523;28;20062;-80
2023/12/05 04:58:04;;;;;;;23.77;17.90;;;;;;;-142.57;100.00;55494.94;4959821;28;20054;-78
2023/12/05 05:00:31;;;;;;;24.60;18.08;;;;;;;-142.57;100.00;55456.56;4954838;28;20139;-80
2023/12/05 05:02:57;;;;;;;25.70;18.63;;;;;;;-142.57;100.00;55456.56;4964709;28;20037;-82
2023/12/05 05:05:22;;;;;;;25.20;18.48;;;;;;;-142.57;100.00;55468.69;4966058;28;20042;-78
2023/12/05 05:07:48;;;;;;;23.83;17.55;;;;;;;-142.57;100.00;55464.63;4959305;28;20082;-82
2023/12/05 05:10:13;;;;;;;26.02;18.27;;;;;;;-142.57;100.00;55470.69;4972614;28;20344;-82
2023/12/05 05:12:39;;;;;;;24.70;17.80;;;;;;;-142.57;100.00;55484.84;4964362;28;20030;-80
2023/12/05 05:15:05;;;;;;;24.88;18.23;;;;;;;-142.57;100.00;55478.78;4965028;28;20118;-80
2023/12/05 05:17:30;;;;;;;24.88;17.83;;;;;;;-142.57;100.00;55470.69;4965251;28;20079;-83
2023/12/05 05:19:56;;;;;;;26.25;17.80;;;;;;;-142.57;100.00;55440.38;4967046;28;20070;-82
2023/12/05 05:22:21;;;;;;;25.55;18.13;;;;;;;-142.57;100.00;55448.47;4961047;28;20019;-82
2023/12/05 05:24:47;;;;;;;28.00;19.73;;;;;;;-142.57;100.00;55442.41;4961539;28;20042;-77
2023/12/05 05:27:13;;;;;;;28.33;18.90;;;;;;;-142.57;100.00;55474.72;4953555;28;20047;-84
2023/12/05 05:29:38;;;;;;;28.55;18.75;;;;;;;-142.57;100.00;55537.38;4967591;28;20485;-79
2023/12/05 05:32:04;;;;;;;28.58;19.52;;;;;;;-142.57;100.00;55523.22;4958660;28;20031;-83
2023/12/05 05:34:30;;;;;;;33.22;21.00;;;;;;;-142.57;100.00;55494.94;4961605;28;20038;-79
2023/12/05 05:36:55;;;;;;;28.58;19.33;;;;;;;-142.57;100.00;55474.72;4962553;28;20039;-83
2023/12/05 05:39:21;;;;;;;29.48;19.35;;;;;;;-142.57;100.00;55482.81;4962475;28;20121;-78
2023/12/05 05:41:46;;;;;;;30.83;18.83;;;;;;;-142.57;100.00;55486.84;4960719;28;20042;-80
2023/12/05 05:44:12;;;;;;;27.73;18.88;;;;;;;-142.57;100.00;55458.56;4966286;28;20450;-81
2023/12/05 05:46:38;;;;;;;26.35;18.58;;;;;;;-142.57;100.00;55476.75;4963383;28;20069;-79
2023/12/05 05:49:03;;;;;;;29.00;18.85;;;;;;;-142.57;100.00;55503.03;4963224;28;20491;-84
2023/12/05 05:51:28;;;;;;;28.17;19.02;;;;;;;-142.57;100.00;55507.06;4963865;28;20035;-87
2023/12/05 05:53:55;;;;;;;33.58;20.10;;;;;;;-142.57;100.00;55490.91;4973327;28;20053;-80
2023/12/05 05:56:22;;;;;;;29.08;19.63;;;;;;;-142.57;100.00;55498.97;4971658;28;20039;-77
2023/12/05 05:58:47;;;;;;;29.75;19.38;;;;;;;-142.57;100.00;55515.16;4972840;28;20551;-85
2023/12/05 06:01:13;;;;;;;25.67;18.42;;;;;;;-142.57;100.00;55511.09;4973360;28;20027;-79
2023/12/05 06:03:40;;;;;;;26.88;18.25;;;;;;;-142.57;100.00;55496.97;4966261;28;20045;-79
2023/12/05 06:06:06;;;;;;;27.38;18.10;;;;;;;-142.57;100.00;55490.91;4960580;28;20195;-81
2023/12/05 06:08:31;;;;;;;27.75;18.13;;;;;;;-142.57;100.00;55494.94;4967857;28;20836;-88
2023/12/05 06:10:57;;;;;;;26.52;19.10;;;;;;;-142.57;100.00;55490.91;4969258;28;20039;-80
2023/12/05 06:13:23;;;;;;;29.15;19.92;;;;;;;-142.57;100.00;55454.53;4975703;28;20158;-84
2023/12/05 06:15:48;;;;;;;25.67;18.50;;;;;;;-142.57;100.00;55462.63;4966120;28;20039;-86
2023/12/05 06:18:17;;;;;;;27.85;19.02;;;;;;;-142.57;100.00;55474.72;4967346;28;20039;-83
2023/12/05 06:20:43;;;;;;;27.30;19.00;;;;;;;-142.57;100.00;55490.91;4968260;28;20063;-80
2023/12/05 06:23:09;;;;;;;29.50;19.45;;;;;;;-142.57;100.00;55474.72;4981684;28;20413;-81
2023/12/05 06:25:34;;;;;;;27.27;18.40;;;;;;;-142.57;100.00;55486.84;4971889;28;20046;-80
2023/12/05 06:28:00;;;;;;;28.35;19.98;;;;;;;-142.57;100.00;55490.91;4958749;28;20035;-77
2023/12/05 06:30:26;;;;;;;28.80;20.10;;;;;;;-142.57;100.00;55462.63;4962390;28;20094;-78
2023/12/05 06:32:53;;;;;;;25.42;18.38;;;;;;;-142.57;100.00;55531.31;4976304;28;20035;-81
2023/12/05 06:35:19;;;;;;;26.35;17.48;;;;;;;-142.57;100.00;55478.78;4946206;28;20031;-79
2023/12/05 06:37:44;;;;;;;27.92;18.30;;;;;;;-142.57;100.00;55478.78;4970712;28;20562;-82
2023/12/05 06:40:10;;;;;;;29.92;19.33;;;;;;;-142.57;100.00;55454.53;4977607;28;20039;-86
2023/12/05 06:42:40;;;;;;;26.17;17.75;;;;;;;-142.57;100.00;55498.97;4951449;28;20485;-85
2023/12/05 06:45:06;;;;;;;26.90;18.63;;;;;;;-142.57;100.00;55466.66;4979509;28;20065;-83
2023/12/05 06:47:33;;;;;;;24.60;17.63;;;;;;;-142.57;100.00;55486.84;4959491;28;20139;-85
2023/12/05 06:50:01;;;;;;;27.27;18.52;;;;;;;-142.57;100.00;55511.09;4970976;28;20034;-86
2023/12/05 06:52:28;;;;;;;28.08;19.35;;;;;;;-142.57;100.00;55494.94;4981490;28;20031;-83
2023/12/05 06:54:53;;;;;;;27.02;18.25;;;;;;;-142.57;100.00;55549.50;4978122;28;20061;-82
2023/12/05 06:57:19;;;;;;;25.23;17.33;;;;;;;-142.57;100.00;55494.94;4972922;28;20467;-81
2023/12/05 06:59:44;;;;;;;31.38;18.70;;;;;;;-142.57;100.00;55470.69;4959009;28;20520;-81
2023/12/05 07:02:10;;;;;;;28.20;19.83;;;;;;;-142.57;100.00;55456.56;4958247;28;20035;-82
2023/12/05 07:04:35;;;;;;;28.02;19.10;;;;;;;-142.57;100.00;55466.66;4974039;28;20035;-84
2023/12/05 07:07:01;;;;;;;28.02;19.15;;;;;;;-142.57;100.00;55498.97;4973871;28;20075;-80
2023/12/05 07:09:27;;;;;;;34.83;20.27;;;;;;;-142.57;100.00;55486.84;4973405;28;20035;-83
2023/12/05 07:11:52;;;;;;;30.88;20.40;;;;;;;-142.57;100.00;55511.09;4955196;28;20378;-81
2023/12/05 07:14:18;;;;;;;34.25;19.92;;;;;;;-142.57;100.00;55468.69;4954091;28;20042;-81
2023/12/05 07:16:45;;;;;;;30.02;18.98;;;;;;;-142.57;100.00;55490.91;4979413;28;20432;-81
2023/12/05 07:19:11;;;;;;;31.30;19.73;;;;;;;-142.57;100.00;55511.09;4977077;28;20097;-85
2023/12/05 07:21:36;;;;;;;29.13;19.38;;;;;;;-142.57;100.00;55478.78;4978488;28;20039;-81
2023/12/05 07:24:02;;;;;;;30.10;19.70;;;;;;;-142.57;100.00;55464.63;4956753;28;20038;-83
2023/12/05 07:26:27;;;;;;;31.75;19.58;;;;;;;-142.57;100.00;55482.81;4970158;28;20039;-85
2023/12/05 07:28:53;;;;;;;30.95;19.00;;;;;;;-142.57;100.00;55503.03;4967086;28;20035;-89
2023/12/05 07:31:20;;;;;;;34.25;19.55;;;;;;;-142.57;100.00;55513.13;4947381;28;20074;-81
2023/12/05 07:33:45;;;;;;;28.30;18.13;;;;;;;-142.57;100.00;55490.91;4960880;28;20475;-86
2023/12/05 07:36:12;;;;;;;30.10;18.48;;;;;;;-142.57;100.00;55462.63;4948831;28;20049;-85
2023/12/05 07:38:37;;;;;;;27.95;17.73;;;;;;;-142.57;100.00;55505.03;4969875;28;20023;-85
2023/12/05 07:41:03;;;;;;;30.20;18.38;;;;;;;-142.57;100.00;55490.91;4979339;28;20035;-84
2023/12/05 07:43:29;;;;;;;28.40;17.67;;;;;;;-142.57;100.00;55486.84;4970446;28;20039;-85
2023/12/05 07:45:58;;;;;;;28.42;18.80;;;;;;;-142.57;100.00;55480.78;4960643;28;20073;-84
2023/12/05 07:48:23;;;;;;;29.05;18.73;;;;;;;-142.57;100.00;55531.31;4961271;28;20035;-82
2023/12/05 07:50:49;;;;;;;29.17;18.98;;;;;;;-142.57;100.00;55513.13;4963382;28;20486;-82
2023/12/05 07:53:15;;;;;;;28.50;19.08;;;;;;;-142.57;100.00;55488.88;4971125;28;20114;-87
2023/12/05 07:55:40;;;;;;;26.50;18.08;;;;;;;-142.57;100.00;55476.75;4957215;28;20035;-84
2023/12/05 07:58:06;;;;;;;27.52;17.85;;;;;;;-142.57;100.00;55486.84;4960101;28;20081;-82
2023/12/05 08:00:32;;;;;;;30.88;18.27;;;;;;;-142.57;100.00;55482.81;4965510;28;20146;-86
2023/12/05 08:02:57;;;;;;;29.80;18.80;;;;;;;-142.57;100.00;55521.22;4974737;28;20039;-86
2023/12/05 08:05:23;;;;;;;28.33;18.75;;;;;;;-142.57;100.00;55494.94;4970949;28;20046;-89
2023/12/05 08:07:52;;;;;;;32.65;20.42;;;;;;;-142.57;100.00;55511.09;4962175;28;20039;-89
2023/12/05 08:10:17;;;;;;;29.20;19.40;;;;;;;-142.57;100.00;55490.91;4969554;28;20035;-86
2023/12/05 08:12:43;;;;;;;31.15;19.38;;;;;;;-142.57;100.00;55519.19;4950419;28;20109;-84
2023/12/05 08:15:08;;;;;;;28.27;18.60;;;;;;;-142.57;100.00;55507.06;4967041;28;20078;-85
2023/12/05 08:17:35;;;;;;;28.08;17.75;;;;;;;-142.57;100.00;55537.38;4961266;28;20066;-83
2023/12/05 08:20:04;;;;;;;27.58;17.85;;;;;;;-142.57;100.00;55498.97;4974726;28;20062;-84
2023/12/05 08:22:30;;;;;;;29.80;18.30;;;;;;;-142.57;100.00;55527.28;4973246;28;20073;-83
2023/12/05 08:24:55;;;;;;;28.40;18.38;;;;;;;-142.57;100.00;55509.09;4963850;28;20050;-82
2023/12/05 08:27:21;;;;;;;30.92;19.20;;;;;;;-142.57;100.00;55492.91;4959455;28;20054;-85
2023/12/05 08:29:47;;;;;;;34.45;20.05;;;;;;;-142.57;100.00;55545.44;4945254;28;20160;-81
2023/12/05 08:32:12;;;;;;;30.83;19.08;;;;;;;-142.57;100.00;55509.09;4971000;28;20141;-81
2023/12/05 08:34:38;;;;;;;32.85;19.92;;;;;;;-142.57;100.00;55507.06;4973268;28;20146;-81
2023/12/05 08:37:04;;;;;;;29.88;19.00;;;;;;;-142.57;100.00;55529.28;4964364;28;20042;-79
2023/12/05 08:39:30;;;;;;;31.67;19.40;;;;;;;-142.57;100.00;55494.94;4968644;28;20054;-80
2023/12/05 08:41:59;;;;;;;33.95;18.48;;;;;;;-142.57;100.00;55523.22;4980609;28;20034;-81
2023/12/05 08:44:25;;;;;;;36.45;19.60;;;;;;;-142.57;100.00;55513.13;4952454;28;20051;-86
2023/12/05 08:46:50;;;;;;;31.95;19.63;;;;;;;-142.57;100.00;55539.38;4951463;28;20031;-88
2023/12/05 08:49:16;;;;;;;34.63;19.67;;;;;;;-142.57;100.00;55541.41;4957814;28;20035;-87
2023/12/05 08:51:42;;;;;;;32.72;19.67;;;;;;;-142.57;100.00;55535.34;4974551;28;20110;-85
2023/12/05 08:54:07;;;;;;;30.20;18.67;;;;;;;-142.57;100.00;55567.69;4968775;28;20043;-87
2023/12/05 08:56:33;;;;;;;34.10;19.48;;;;;;;-142.57;100.00;55549.50;4968792;28;20691;-84
2023/12/05 08:59:01;;;;;;;33.10;19.35;;;;;;;-142.57;100.00;55555.56;4964576;28;20121;-86
2023/12/05 09:01:28;;;;;;;33.42;18.30;;;;;;;-142.57;100.00;55567.69;4964790;28;20066;-86
2023/12/05 09:03:54;;;;;;;31.73;18.63;;;;;;;-142.57;100.00;55553.53;4963567;28;20073;-86
2023/12/05 09:06:19;;;;;;;33.88;19.73;;;;;;;-142.57;100.00;55537.38;4963348;28;20079;-84
2023/12/05 09:08:45;;;;;;;35.83;19.63;;;;;;;-142.57;100.00;55543.44;4954089;28;20035;-86
2023/12/05 09:11:12;;;;;;;35.35;19.52;;;;;;;-142.57;100.00;55539.38;4954962;28;20055;-83
2023/12/05 09:13:38;;;;;;;38.35;18.90;;;;;;;-142.57;100.00;55555.56;4954710;28;20039;-83
2023/12/05 09:16:04;;;;;;;43.92;20.17;;;;;;;-142.57;100.00;55533.31;4960001;28;20042;-84
2023/12/05 09:18:31;;;;;;;34.38;16.60;;;;;;;-142.57;100.00;55624.25;4969822;28;20058;-86
2023/12/05 09:20:57;;;;;;;36.63;18.33;;;;;;;-142.57;100.00;55593.94;4962028;28;20398;-87
2023/12/05 09:23:23;;;;;;;29.25;16.65;;;;;;;-142.57;100.00;55569.69;4958870;28;20024;-86
2023/12/05 09:25:49;;;;;;;30.20;17.33;;;;;;;-142.57;100.00;55587.88;4968855;28;20403;-86
2023/12/05 09:28:14;;;;;;;31.92;17.25;;;;;;;-142.57;100.00;55614.16;4956210;28;20126;-84
2023/12/05 09:30:40;;;;;;;34.33;17.65;;;;;;;-142.57;100.00;55618.19;4961530;28;20042;-82
2023/12/05 09:33:06;;;;;;;31.02;17.17;;;;;;;-142.57;100.00;55579.81;4958537;28;20083;-86
2023/12/05 09:35:32;;;;;;;33.22;17.48;;;;;;;-142.57;100.00;55595.97;4941141;28;20134;-83
2023/12/05 09:37:58;;;;;;;43.60;20.38;;;;;;;-142.57;100.00;55575.75;4951221;28;20059;-82
2023/12/05 09:40:24;;;;;;;34.40;19.02;;;;;;;-142.57;100.00;55614.16;4973781;28;20031;-83
2023/12/05 09:42:51;;;;;;;34.47;19.80;;;;;;;-142.57;100.00;55593.94;4953158;28;20390;-84
2023/12/05 09:45:18;;;;;;;37.88;20.38;;;;;;;-142.57;100.00;55557.56;4971682;28;20186;-84
2023/12/05 09:47:50;;;;;;;37.38;19.75;;;;;;;-142.57;100.00;55593.94;4957354;28;20023;-84
2023/12/05 09:50:18;;;;;;;29.65;16.65;;;;;;;-142.57;100.00;55575.75;4954773;28;20075;-84
2023/12/05 09:52:44;;;;;;;43.42;22.60;;;;;;;-142.57;100.00;55589.91;4954081;28;20035;-85
2023/12/05 09:55:10;;;;;;;44.38;23.67;;;;;;;-142.57;100.00;55559.59;4953648;28;20057;-81
2023/12/05 09:57:37;;;;;;;49.22;24.05;;;;;;;-142.57;100.00;55610.09;4964759;28;20031;-83
2023/12/05 10:00:04;;;;;;;46.65;24.00;;;;;;;-142.57;100.00;55620.22;4951296;28;20517;-82
2023/12/05 10:02:40;;;;;;;45.33;23.48;;;;;;;-142.57;100.00;55600.00;4969415;28;20078;-83
2023/12/05 10:05:08;;;;;;;46.58;23.90;;;;;;;-142.57;100.00;55608.09;4956951;28;20035;-83
2023/12/05 10:07:34;;;;;;;42.50;22.63;;;;;;;-142.57;100.00;55638.41;4952161;28;20031;-84
2023/12/05 10:10:03;;;;;;;40.35;22.25;;;;;;;-142.57;100.00;55620.22;4954896;28;20042;-86
2023/12/05 10:12:30;;;;;;;38.58;21.42;;;;;;;-142.57;100.00;55632.34;4951101;28;20099;-85
2023/12/05 10:15:00;;;;;;;39.85;21.88;;;;;;;-142.57;100.00;55626.28;4950864;28;20045;-83
2023/12/05 10:17:32;;;;;;;35.00;19.00;;;;;;;-142.57;100.00;55640.41;4966109;28;20043;-83
2023/12/05 10:19:59;;;;;;;31.77;18.70;;;;;;;-142.57;100.00;55628.28;4965650;28;20089;-86
2023/12/05 10:22:25;;;;;;;35.33;18.35;;;;;;;-142.57;100.00;55656.56;4956401;28;20035;-84
2023/12/05 10:24:54;;;;;;;36.47;20.60;;;;;;;-142.57;100.00;55636.38;4958337;28;20035;-82
2023/12/05 10:27:20;;;;;;;34.30;19.92;;;;;;;-142.57;100.00;55660.63;4966488;28;20477;-82
2023/12/05 10:29:45;;;;;;;37.92;20.50;;;;;;;-142.57;100.00;55680.81;4975298;28;20039;-84
2023/12/05 10:32:15;;;;;;;38.28;21.00;;;;;;;-142.57;100.00;55674.75;4955034;28;20034;-84
2023/12/05 10:34:49;;;;;;;37.53;21.60;;;;;;;-142.57;100.00;55660.63;4957579;28;20055;-79
2023/12/05 10:37:19;;;;;;;43.55;22.67;;;;;;;-142.57;100.00;55632.34;4956322;28;20042;-85
2023/12/05 10:39:45;;;;;;;46.10;24.38;;;;;;;-142.57;100.00;55660.63;4962952;28;20053;-81
2023/12/05 10:42:12;;;;;;;46.85;25.08;;;;;;;-142.57;100.00;55662.63;4978865;28;20111;-83
2023/12/05 10:44:38;;;;;;;46.03;25.00;;;;;;;-142.57;100.00;55642.44;4960708;28;20054;-88
2023/12/05 10:47:13;;;;;;;48.90;26.05;;;;;;;-142.57;100.00;55660.63;4961389;28;20390;-85
2023/12/05 10:49:59;;;;;;;57.15;27.10;;;;;;;-142.57;100.00;55656.56;4962203;28;20035;-82
2023/12/05 10:52:24;;;;;;;53.90;27.65;;;;;;;-142.57;100.00;55660.63;4959666;28;20466;-82